createdAt,value
2023-03-19T00:02:17.564Z,6.97
2023-03-19T00:04:46.430Z,7.07
2023-03-19T00:07:18.205Z,7.47
2023-03-19T00:09:48.278Z,7.33
2023-03-19T00:12:16.643Z,7.23
2023-03-19T00:14:44.388Z,7.00
2023-03-19T00:17:12.703Z,5.93
2023-03-19T00:19:40.941Z,5.33
2023-03-19T00:22:09.159Z,5.40
2023-03-19T00:24:38.211Z,6.00
2023-03-19T00:27:06.654Z,6.27
2023-03-19T00:29:34.463Z,5.33
2023-03-19T00:32:02.317Z,4.87
2023-03-19T00:34:29.972Z,5.20
2023-03-19T00:36:57.702Z,5.40
2023-03-19T00:39:25.459Z,5.23
2023-03-19T00:41:54.412Z,5.80
2023-03-19T00:44:22.141Z,5.37
2023-03-19T00:46:49.883Z,6.00
2023-03-19T00:49:17.653Z,5.67
2023-03-19T00:51:45.887Z,7.33
2023-03-19T00:54:13.832Z,6.57
2023-03-19T00:56:41.678Z,6.57
2023-03-19T00:59:10.721Z,6.60
2023-03-19T01:01:38.505Z,5.90
2023-03-19T01:04:06.419Z,6.20
2023-03-19T01:06:34.161Z,6.37
2023-03-19T01:09:01.793Z,5.87
2023-03-19T01:11:29.690Z,5.70
2023-03-19T01:13:57.428Z,5.43
2023-03-19T01:16:26.416Z,5.90
2023-03-19T01:18:54.197Z,6.00
2023-03-19T01:21:22.101Z,5.70
2023-03-19T01:23:51.835Z,5.67
2023-03-19T01:26:20.030Z,6.17
2023-03-19T01:28:47.829Z,7.30
2023-03-19T01:31:15.656Z,6.30
2023-03-19T01:33:44.724Z,7.10
2023-03-19T01:36:12.382Z,7.07
2023-03-19T01:38:40.075Z,7.27
2023-03-19T01:41:07.949Z,7.43
2023-03-19T01:43:36.610Z,6.50
2023-03-19T01:46:08.571Z,5.87
2023-03-19T01:48:40.876Z,6.73
2023-03-19T01:51:12.162Z,6.00
2023-03-19T01:53:43.025Z,6.13
2023-03-19T01:56:16.120Z,6.27
2023-03-19T01:58:47.553Z,6.60
2023-03-19T02:01:15.731Z,6.43
2023-03-19T02:03:43.740Z,6.20
2023-03-19T02:06:14.667Z,6.83
2023-03-19T02:08:43.326Z,7.17
2023-03-19T02:11:11.778Z,6.87
2023-03-19T02:13:39.973Z,6.87
2023-03-19T02:16:08.650Z,7.70
2023-03-19T02:18:37.115Z,6.80
2023-03-19T02:21:08.093Z,7.17
2023-03-19T02:23:44.669Z,7.50
2023-03-19T02:26:15.909Z,6.03
2023-03-19T02:28:46.726Z,6.63
2023-03-19T02:31:16.107Z,7.27
2023-03-19T02:33:43.794Z,5.93
2023-03-19T02:36:16.538Z,6.80
2023-03-19T02:38:47.593Z,6.90
2023-03-19T02:41:16.602Z,6.77
2023-03-19T02:43:44.324Z,6.37
2023-03-19T02:46:13.853Z,5.93
2023-03-19T02:48:42.238Z,6.20
2023-03-19T02:51:09.988Z,6.33
2023-03-19T02:53:37.689Z,6.97
2023-03-19T02:56:06.018Z,6.20
2023-03-19T02:58:35.061Z,6.87
2023-03-19T03:01:02.762Z,6.33
2023-03-19T03:03:31.444Z,6.00
2023-03-19T03:05:59.121Z,7.57
2023-03-19T03:08:28.204Z,8.40
2023-03-19T03:10:56.354Z,7.50
2023-03-19T03:13:24.034Z,6.83
2023-03-19T03:15:53.474Z,7.17
2023-03-19T03:18:21.307Z,7.60
2023-03-19T03:20:48.976Z,6.83
2023-03-19T03:23:17.151Z,7.37
2023-03-19T03:25:44.882Z,7.00
2023-03-19T03:28:12.585Z,6.73
2023-03-19T03:30:40.250Z,6.83
2023-03-19T03:33:09.729Z,7.87
2023-03-19T03:35:37.978Z,8.40
2023-03-19T03:38:06.644Z,9.17
2023-03-19T03:40:34.949Z,7.27
2023-03-19T03:43:02.874Z,6.87
2023-03-19T03:45:30.831Z,6.97
2023-03-19T03:47:58.522Z,6.87
2023-03-19T03:50:27.516Z,7.53
2023-03-19T03:52:55.545Z,7.13
2023-03-19T03:55:23.642Z,7.20
2023-03-19T03:57:52.004Z,7.03
2023-03-19T04:00:20.304Z,6.73
2023-03-19T04:02:48.004Z,7.50
2023-03-19T04:05:16.289Z,6.53
2023-03-19T04:07:45.847Z,6.80
2023-03-19T04:10:14.100Z,6.90
2023-03-19T04:12:42.181Z,6.80
2023-03-19T04:15:12.019Z,6.50
2023-03-19T04:17:40.508Z,6.73
2023-03-19T04:20:11.075Z,7.20
2023-03-19T04:22:39.039Z,6.73
2023-03-19T04:25:09.175Z,6.80
2023-03-19T04:27:37.188Z,7.13
2023-03-19T04:30:05.866Z,6.87
2023-03-19T04:32:35.526Z,6.60
2023-03-19T04:35:04.084Z,6.97
2023-03-19T04:37:32.016Z,6.43
2023-03-19T04:39:59.658Z,5.73
2023-03-19T04:42:28.645Z,7.00
2023-03-19T04:44:56.312Z,5.13
2023-03-19T04:47:24.249Z,5.30
2023-03-19T04:49:51.952Z,6.10
2023-03-19T04:52:19.562Z,5.03
2023-03-19T04:54:47.379Z,4.77
2023-03-19T04:57:15.044Z,5.33
2023-03-19T04:59:44.004Z,5.17
2023-03-19T05:02:11.924Z,4.67
2023-03-19T05:04:39.655Z,4.77
2023-03-19T05:07:07.460Z,4.53
2023-03-19T05:09:35.189Z,4.80
2023-03-19T05:12:02.924Z,5.10
2023-03-19T05:14:30.665Z,4.23
2023-03-19T05:16:59.692Z,4.90
2023-03-19T05:19:27.515Z,5.40
2023-03-19T05:21:57.203Z,4.77
2023-03-19T05:24:25.324Z,5.03
2023-03-19T05:26:52.967Z,4.63
2023-03-19T05:29:20.585Z,5.27
2023-03-19T05:31:48.413Z,4.43
2023-03-19T05:34:17.487Z,4.93
2023-03-19T05:36:45.433Z,5.00
2023-03-19T05:39:13.248Z,5.00
2023-03-19T05:41:40.884Z,4.77
2023-03-19T05:44:08.940Z,4.70
2023-03-19T05:46:36.726Z,4.47
2023-03-19T05:49:04.998Z,4.53
2023-03-19T05:51:34.170Z,5.27
2023-03-19T05:54:01.934Z,6.73
2023-03-19T05:56:30.220Z,5.50
2023-03-19T05:58:58.017Z,4.80
2023-03-19T06:01:28.793Z,4.33
2023-03-19T06:03:56.517Z,4.77
2023-03-19T06:06:24.438Z,5.37
2023-03-19T06:08:53.602Z,5.03
2023-03-19T06:11:21.276Z,5.20
2023-03-19T06:13:48.890Z,4.87
2023-03-19T06:16:16.840Z,6.17
2023-03-19T06:18:45.629Z,4.53
2023-03-19T06:21:13.346Z,5.10
2023-03-19T06:23:41.384Z,4.53
2023-03-19T06:26:10.450Z,4.60
2023-03-19T06:28:38.233Z,5.23
2023-03-19T06:31:06.485Z,4.93
2023-03-19T06:33:34.351Z,4.30
2023-03-19T06:36:02.076Z,4.60
2023-03-19T06:38:29.821Z,4.37
2023-03-19T06:40:57.494Z,4.53
2023-03-19T06:43:26.825Z,5.17
2023-03-19T06:45:54.687Z,4.53
2023-03-19T06:48:22.477Z,4.33
2023-03-19T06:50:50.196Z,4.53
2023-03-19T06:53:17.914Z,5.07
2023-03-19T06:55:47.235Z,4.83
2023-03-19T06:58:14.984Z,4.50
2023-03-19T07:00:44.129Z,4.67
2023-03-19T07:03:12.223Z,5.00
2023-03-19T07:05:44.159Z,4.67
2023-03-19T07:08:12.657Z,5.03
2023-03-19T07:10:40.309Z,4.80
2023-03-19T07:13:08.341Z,4.70
2023-03-19T07:15:36.628Z,4.10
2023-03-19T07:18:06.163Z,4.63
2023-03-19T07:20:34.207Z,5.03
2023-03-19T07:23:01.983Z,5.00
2023-03-19T07:25:29.838Z,4.70
2023-03-19T07:27:57.665Z,5.13
2023-03-19T07:30:25.505Z,5.30
2023-03-19T07:32:53.360Z,4.90
2023-03-19T07:35:22.824Z,4.70
2023-03-19T07:37:50.672Z,4.47
2023-03-19T07:40:18.593Z,4.60
2023-03-19T07:42:46.693Z,5.50
2023-03-19T07:45:14.526Z,5.00
2023-03-19T07:47:42.133Z,5.30
2023-03-19T07:50:10.868Z,5.63
2023-03-19T07:52:39.841Z,5.30
2023-03-19T07:55:08.078Z,4.80
2023-03-19T07:57:35.815Z,5.23
2023-03-19T08:00:03.688Z,5.20
2023-03-19T08:02:31.526Z,6.60
2023-03-19T08:05:02.087Z,6.73
2023-03-19T08:07:29.718Z,7.27
2023-03-19T08:10:08.807Z,7.00
2023-03-19T08:12:40.981Z,7.07
2023-03-19T08:15:11.099Z,6.27
2023-03-19T08:17:39.356Z,5.67
2023-03-19T08:20:09.630Z,5.77
2023-03-19T08:22:38.558Z,5.80
2023-03-19T08:25:08.800Z,5.70
2023-03-19T08:27:36.768Z,5.37
2023-03-19T08:30:07.294Z,6.13
2023-03-19T08:32:35.105Z,5.33
2023-03-19T08:35:03.016Z,4.90
2023-03-19T08:37:31.033Z,5.43
2023-03-19T08:39:58.926Z,5.50
2023-03-19T08:42:28.904Z,5.40
2023-03-19T08:44:56.743Z,5.23
2023-03-19T08:47:24.462Z,5.50
2023-03-19T08:49:52.435Z,5.70
2023-03-19T08:52:21.113Z,5.87
2023-03-19T08:54:48.902Z,5.30
2023-03-19T08:57:16.628Z,5.33
2023-03-19T08:59:45.930Z,4.63
2023-03-19T09:02:13.836Z,4.47
2023-03-19T09:04:42.140Z,4.60
2023-03-19T09:07:13.113Z,5.23
2023-03-19T09:09:41.679Z,4.87
2023-03-19T09:12:11.899Z,4.47
2023-03-19T09:14:40.992Z,4.77
2023-03-19T09:17:10.920Z,4.23
2023-03-19T09:19:38.817Z,4.50
2023-03-19T09:22:06.840Z,4.80
2023-03-19T09:24:34.567Z,4.03
2023-03-19T09:27:03.181Z,3.83
2023-03-19T09:29:31.134Z,3.70
2023-03-19T09:32:00.596Z,3.17
2023-03-19T09:34:29.782Z,2.93
2023-03-19T09:36:57.505Z,2.70
2023-03-19T09:39:25.463Z,2.87
2023-03-19T09:42:05.673Z,2.70
2023-03-19T09:44:37.819Z,2.70
2023-03-19T09:47:16.995Z,2.73
2023-03-19T09:49:48.724Z,2.93
2023-03-19T09:52:29.719Z,2.43
2023-03-19T09:55:02.175Z,3.20
2023-03-19T09:57:33.156Z,3.13
2023-03-19T10:00:01.364Z,3.10
2023-03-19T10:02:42.497Z,3.40
2023-03-19T10:05:24.375Z,2.30
2023-03-19T10:08:05.978Z,2.90
2023-03-19T10:11:04.750Z,3.20
2023-03-19T10:13:45.607Z,2.93
2023-03-19T10:16:16.714Z,3.27
2023-03-19T10:18:48.691Z,3.07
2023-03-19T10:21:23.100Z,2.80
2023-03-19T10:23:56.145Z,2.67
2023-03-19T10:26:31.143Z,3.17
2023-03-19T10:29:05.770Z,2.83
2023-03-19T10:31:44.960Z,2.03
2023-03-19T10:34:28.824Z,2.67
2023-03-19T10:37:03.684Z,2.15
2023-03-19T10:39:33.983Z,2.35
2023-03-19T10:42:11.279Z,2.90
2023-03-19T10:44:46.951Z,2.22
2023-03-19T10:47:16.485Z,2.13
2023-03-19T10:49:44.195Z,2.50
2023-03-19T10:52:23.508Z,2.17
2023-03-19T10:54:56.576Z,2.45
2023-03-19T10:57:27.704Z,2.42
2023-03-19T10:59:55.886Z,2.67
2023-03-19T11:02:27.874Z,2.22
2023-03-19T11:05:20.198Z,2.08
2023-03-19T11:07:52.291Z,2.22
2023-03-19T11:10:21.678Z,2.20
2023-03-19T11:12:54.522Z,2.47
2023-03-19T11:15:24.205Z,2.33
2023-03-19T11:17:58.945Z,2.60
2023-03-19T11:20:31.708Z,2.45
2023-03-19T11:23:04.158Z,2.38
2023-03-19T11:25:36.822Z,2.30
2023-03-19T11:28:08.536Z,1.95
2023-03-19T11:30:44.577Z,2.03
2023-03-19T11:33:27.318Z,2.10
2023-03-19T11:36:02.426Z,2.33
2023-03-19T11:38:40.798Z,1.88
2023-03-19T11:41:19.722Z,2.15
2023-03-19T11:44:00.512Z,2.72
2023-03-19T11:46:39.912Z,2.40
2023-03-19T11:49:30.506Z,2.20
2023-03-19T11:52:03.469Z,1.92
2023-03-19T11:54:42.039Z,2.40
2023-03-19T11:57:13.238Z,2.30
2023-03-19T11:59:56.689Z,2.87
2023-03-19T12:02:57.042Z,2.97
2023-03-19T12:05:31.030Z,2.93
2023-03-19T12:08:11.898Z,2.47
2023-03-19T12:10:53.760Z,2.70
2023-03-19T12:13:33.139Z,2.60
2023-03-19T12:16:10.974Z,2.43
2023-03-19T12:18:56.512Z,3.57
2023-03-19T12:21:31.601Z,1.63
2023-03-19T12:24:05.379Z,1.67
2023-03-19T12:26:47.519Z,1.97
2023-03-19T12:29:24.130Z,2.10
2023-03-19T12:32:09.717Z,2.03
2023-03-19T12:34:43.648Z,1.57
2023-03-19T12:37:22.416Z,1.40
2023-03-19T12:39:57.909Z,1.50
2023-03-19T12:42:31.121Z,1.57
2023-03-19T12:45:01.663Z,2.10
2023-03-19T12:47:33.760Z,2.27
2023-03-19T12:50:04.453Z,2.53
2023-03-19T12:52:36.752Z,2.33
2023-03-19T12:55:10.880Z,2.47
2023-03-19T12:57:47.925Z,2.23
2023-03-19T13:00:23.957Z,1.87
2023-03-19T13:02:57.614Z,2.00
2023-03-19T13:05:33.522Z,2.10
2023-03-19T13:08:08.163Z,1.90
2023-03-19T13:10:36.853Z,1.87
2023-03-19T13:13:26.554Z,1.90
2023-03-19T13:15:58.665Z,2.17
2023-03-19T13:18:38.951Z,2.20
2023-03-19T13:21:23.050Z,2.13
2023-03-19T13:23:59.528Z,2.47
2023-03-19T13:26:27.957Z,3.10
2023-03-19T13:29:02.763Z,2.10
2023-03-19T13:31:36.336Z,2.30
2023-03-19T13:34:06.298Z,2.67
2023-03-19T13:36:39.226Z,2.37
2023-03-19T13:39:16.366Z,2.53
2023-03-19T13:41:54.799Z,2.83
2023-03-19T13:44:36.475Z,2.77
2023-03-19T13:47:25.159Z,3.13
2023-03-19T13:50:27.390Z,3.30
2023-03-19T13:53:27.499Z,3.63
2023-03-19T13:55:58.727Z,3.20
2023-03-19T13:58:45.053Z,3.33
2023-03-19T14:01:39.161Z,3.13
2023-03-19T14:04:16.757Z,3.03
2023-03-19T14:06:46.948Z,2.53
2023-03-19T14:09:31.617Z,1.83
2023-03-19T14:12:11.708Z,1.60
2023-03-19T14:14:45.192Z,1.40
2023-03-19T14:17:21.882Z,1.20
2023-03-19T14:19:51.566Z,1.23
2023-03-19T14:22:22.960Z,1.00
2023-03-19T14:25:03.854Z,0.90
2023-03-19T14:27:33.766Z,1.00
2023-03-19T14:30:09.807Z,1.00
2023-03-19T14:32:41.834Z,0.83
2023-03-19T14:35:16.911Z,0.70
2023-03-19T14:37:50.517Z,0.90
2023-03-19T14:40:21.952Z,0.83
2023-03-19T14:42:59.970Z,0.90
2023-03-19T14:45:55.990Z,0.90
2023-03-19T14:48:59.280Z,0.97
2023-03-19T14:51:51.751Z,1.00
2023-03-19T14:54:27.115Z,1.30
2023-03-19T14:56:57.522Z,1.30
2023-03-19T14:59:25.555Z,1.23
2023-03-19T15:01:55.096Z,1.00
2023-03-19T15:04:27.088Z,1.53
2023-03-19T15:06:58.995Z,2.30
2023-03-19T15:09:31.120Z,1.97
2023-03-19T15:12:23.116Z,1.37
2023-03-19T15:15:16.471Z,1.90
2023-03-19T15:17:49.217Z,1.47
2023-03-19T15:20:27.545Z,1.73
2023-03-19T15:22:56.339Z,1.80
2023-03-19T15:25:24.709Z,1.70
2023-03-19T15:28:10.538Z,1.40
2023-03-19T15:30:53.963Z,1.10
2023-03-19T15:33:40.105Z,1.60
2023-03-19T15:36:17.734Z,1.50
2023-03-19T15:38:50.016Z,1.47
2023-03-19T15:41:19.977Z,1.67
2023-03-19T15:43:48.362Z,2.77
2023-03-19T15:46:19.997Z,2.00
2023-03-19T15:48:53.229Z,1.70
2023-03-19T15:51:25.643Z,1.73
2023-03-19T15:53:53.909Z,1.53
2023-03-19T15:56:22.665Z,1.70
2023-03-19T15:58:53.449Z,1.60
2023-03-19T16:01:21.866Z,1.10
2023-03-19T16:03:56.336Z,1.50
2023-03-19T16:06:28.497Z,1.80
2023-03-19T16:09:07.638Z,1.70
2023-03-19T16:11:37.121Z,1.43
2023-03-19T16:14:12.375Z,1.47
2023-03-19T16:16:42.094Z,1.30
2023-03-19T16:19:30.347Z,1.70
2023-03-19T16:22:00.238Z,1.70
2023-03-19T16:24:33.617Z,1.97
2023-03-19T16:27:06.117Z,1.97
2023-03-19T16:29:39.029Z,1.60
2023-03-19T16:32:20.975Z,1.70
2023-03-19T16:34:51.929Z,1.70
2023-03-19T16:37:44.073Z,1.80
2023-03-19T16:40:40.558Z,1.50
2023-03-19T16:43:09.637Z,2.17
2023-03-19T16:45:37.807Z,1.87
2023-03-19T16:48:06.206Z,2.20
2023-03-19T16:50:37.509Z,2.70
2023-03-19T16:53:14.369Z,2.23
2023-03-19T16:55:47.256Z,2.33
2023-03-19T16:58:16.788Z,2.00
2023-03-19T17:00:45.866Z,1.83
2023-03-19T17:03:15.298Z,2.23
2023-03-19T17:05:44.119Z,1.87
2023-03-19T17:08:13.940Z,2.50
2023-03-19T17:10:44.667Z,2.53
2023-03-19T17:13:17.590Z,2.20
2023-03-19T17:15:46.448Z,2.23
2023-03-19T17:18:20.322Z,2.43
2023-03-19T17:20:53.226Z,2.70
2023-03-19T17:23:24.388Z,2.13
2023-03-19T17:25:53.130Z,3.70
2023-03-19T17:28:21.684Z,2.93
2023-03-19T17:30:50.138Z,2.80
2023-03-19T17:33:24.669Z,3.20
2023-03-19T17:35:53.070Z,3.00
2023-03-19T17:38:23.643Z,3.50
2023-03-19T17:40:51.550Z,3.10
2023-03-19T17:43:19.215Z,3.13
2023-03-19T17:45:48.485Z,2.83
2023-03-19T17:48:21.563Z,2.87
2023-03-19T17:50:50.411Z,3.07
2023-03-19T17:53:19.159Z,3.73
2023-03-19T17:55:48.482Z,3.20
2023-03-19T17:58:18.573Z,4.07
2023-03-19T18:00:47.297Z,4.70
2023-03-19T18:03:16.494Z,4.93
2023-03-19T18:05:44.732Z,4.30
2023-03-19T18:08:16.671Z,4.23
2023-03-19T18:10:45.089Z,4.43
2023-03-19T18:13:14.214Z,4.00
2023-03-19T18:15:45.302Z,3.00
2023-03-19T18:18:18.376Z,2.90
2023-03-19T18:20:46.720Z,3.00
2023-03-19T18:23:16.109Z,2.37
2023-03-19T18:25:44.975Z,1.67
2023-03-19T18:28:14.423Z,1.57
2023-03-19T18:30:42.983Z,1.37
2023-03-19T18:33:16.250Z,1.50
2023-03-19T18:35:45.982Z,1.03
2023-03-19T18:38:16.932Z,1.20
2023-03-19T18:40:45.219Z,1.80
2023-03-19T18:43:16.262Z,1.80
2023-03-19T18:45:46.563Z,1.63
2023-03-19T18:48:21.624Z,1.80
2023-03-19T18:50:49.666Z,1.90
2023-03-19T18:53:17.747Z,1.40
2023-03-19T18:55:47.294Z,2.03
2023-03-19T18:58:21.103Z,1.33
2023-03-19T19:00:49.940Z,1.37
2023-03-19T19:03:20.919Z,1.73
2023-03-19T19:05:49.646Z,2.40
2023-03-19T19:08:20.047Z,2.17
2023-03-19T19:10:50.825Z,2.10
2023-03-19T19:13:23.835Z,2.13
2023-03-19T19:15:53.362Z,1.53
2023-03-19T19:18:23.135Z,1.53
2023-03-19T19:20:53.368Z,1.67
2023-03-19T19:23:22.530Z,1.37
2023-03-19T19:25:52.098Z,1.20
2023-03-19T19:28:26.869Z,1.63
2023-03-19T19:30:56.067Z,1.50
2023-03-19T19:33:25.502Z,1.00
2023-03-19T19:35:53.310Z,1.30
2023-03-19T19:38:21.158Z,1.37
2023-03-19T19:40:52.062Z,1.80
2023-03-19T19:43:24.053Z,1.63
2023-03-19T19:45:54.758Z,1.80
2023-03-19T19:48:24.678Z,1.80
2023-03-19T19:50:53.656Z,1.83
2023-03-19T19:53:22.174Z,1.40
2023-03-19T19:55:50.191Z,1.40
2023-03-19T19:58:22.199Z,1.33
2023-03-19T20:01:02.236Z,1.80
2023-03-19T20:03:33.226Z,1.40
2023-03-19T20:06:01.747Z,1.20
2023-03-19T20:08:29.819Z,1.40
2023-03-19T20:10:58.305Z,1.67
2023-03-19T20:13:29.124Z,2.30
2023-03-19T20:15:59.217Z,2.63
2023-03-19T20:18:30.991Z,1.67
2023-03-19T20:20:59.470Z,1.90
2023-03-19T20:23:27.272Z,1.87
2023-03-19T20:25:58.244Z,1.90
2023-03-19T20:28:32.328Z,1.70
2023-03-19T20:31:01.569Z,1.80
2023-03-19T20:33:31.197Z,2.00
2023-03-19T20:35:59.110Z,1.87
2023-03-19T20:38:29.013Z,1.53
2023-03-19T20:40:57.914Z,2.33
2023-03-19T20:43:37.640Z,2.03
2023-03-19T20:46:08.087Z,2.10
2023-03-19T20:48:35.890Z,2.10
2023-03-19T20:51:04.033Z,1.97
2023-03-19T20:53:31.813Z,2.20
2023-03-19T20:56:00.059Z,2.67
2023-03-19T20:58:32.101Z,1.73
2023-03-19T21:01:00.314Z,1.20
2023-03-19T21:03:31.227Z,1.47
2023-03-19T21:06:01.890Z,1.40
2023-03-19T21:08:33.381Z,1.77
2023-03-19T21:11:01.927Z,1.57
2023-03-19T21:13:31.781Z,1.90
2023-03-19T21:15:59.658Z,1.60
2023-03-19T21:18:27.341Z,2.10
2023-03-19T21:20:57.661Z,1.63
2023-03-19T21:23:30.005Z,1.90
2023-03-19T21:25:58.622Z,1.77
2023-03-19T21:28:30.626Z,1.50
2023-03-19T21:30:59.858Z,1.63
2023-03-19T21:33:30.081Z,1.50
2023-03-19T21:35:58.238Z,1.43
2023-03-19T21:38:26.020Z,1.40
2023-03-19T21:40:57.847Z,1.60
2023-03-19T21:43:33.877Z,1.97
2023-03-19T21:46:22.893Z,1.67
2023-03-19T21:48:51.877Z,1.60
2023-03-19T21:51:19.538Z,1.83
2023-03-19T21:53:47.571Z,1.60
2023-03-19T21:56:22.310Z,1.30
2023-03-19T21:58:51.272Z,1.97
2023-03-19T22:01:22.397Z,1.60
2023-03-19T22:03:50.830Z,1.50
2023-03-19T22:06:19.105Z,1.63
2023-03-19T22:08:48.287Z,1.80
2023-03-19T22:11:18.605Z,1.60
2023-03-19T22:13:47.220Z,1.53
2023-03-19T22:16:21.139Z,2.03
2023-03-19T22:18:49.050Z,1.83
2023-03-19T22:21:18.741Z,2.30
2023-03-19T22:23:47.587Z,2.23
2023-03-19T22:26:34.138Z,2.00
2023-03-19T22:29:04.023Z,2.10
2023-03-19T22:31:34.312Z,2.03
2023-03-19T22:34:02.166Z,3.33
2023-03-19T22:36:29.863Z,2.83
2023-03-19T22:38:57.710Z,2.50
2023-03-19T22:41:28.464Z,2.13
2023-03-19T22:43:58.169Z,2.63
2023-03-19T22:46:27.735Z,2.23
2023-03-19T22:48:56.902Z,2.00
2023-03-19T22:51:28.296Z,2.07
2023-03-19T22:53:56.559Z,2.03
2023-03-19T22:56:24.362Z,2.40
2023-03-19T22:58:52.706Z,1.87
2023-03-19T23:01:32.628Z,1.80
2023-03-19T23:04:15.901Z,1.87
2023-03-19T23:06:43.663Z,2.00
2023-03-19T23:09:15.621Z,1.73
2023-03-19T23:11:43.596Z,1.77
2023-03-19T23:14:26.063Z,2.00
2023-03-19T23:19:29.122Z,1.80
2023-03-19T23:21:58.730Z,2.07
2023-03-19T23:24:27.734Z,1.97
2023-03-19T23:26:58.076Z,2.17
2023-03-19T23:29:29.681Z,2.30
2023-03-19T23:31:58.487Z,2.37
2023-03-19T23:34:28.341Z,2.70
2023-03-19T23:36:56.131Z,2.80
2023-03-19T23:39:24.003Z,2.53
2023-03-19T23:41:55.462Z,2.67
2023-03-19T23:44:23.496Z,2.30
2023-03-19T23:46:52.223Z,2.50
2023-03-19T23:49:28.704Z,2.50
2023-03-19T23:51:57.306Z,3.20
2023-03-19T23:54:30.656Z,3.40
2023-03-19T23:56:59.807Z,3.30
2023-03-19T23:59:29.934Z,3.43
